Time;durP1;ratioP1;P1;durP2;ratioP2;P2;SDS_P1;SDS_P2;PMS_P1;PMS_P2;Temp;Humidity;BMP_temperature;BMP_pressure;BME280_temperature;BME280_humidity;BME280_pressure;Samples;Min_cycle;Max_cycle;Signal;HPM_P1;HPM_P2
2022/08/29 00:00:30;;;;;;;17.45;13.38;;;;;;;18.63;78.62;97142.14;1763596;81;27570;-79
2022/08/29 00:02:59;;;;;;;15.98;12.78;;;;;;;18.61;78.65;97142.95;1763208;80;25734;-78
2022/08/29 00:05:31;;;;;;;15.70;12.95;;;;;;;18.59;78.67;97141.06;1742149;81;25686;-78
2022/08/29 00:08:00;;;;;;;21.40;13.80;;;;;;;18.60;78.72;97150.87;1763363;81;26432;-78
2022/08/29 00:10:28;;;;;;;17.50;13.25;;;;;;;18.59;78.70;97153.36;1763555;81;25993;-79
2022/08/29 00:12:55;;;;;;;17.45;13.68;;;;;;;18.59;78.68;97154.73;1763594;80;27368;-78
2022/08/29 00:15:22;;;;;;;15.30;13.22;;;;;;;18.59;78.58;97158.28;1763498;81;25640;-77
2022/08/29 00:17:49;;;;;;;14.95;12.47;;;;;;;18.56;78.65;97155.23;1763614;80;25773;-77
2022/08/29 00:20:21;;;;;;;19.55;13.93;;;;;;;18.52;78.65;97152.20;1763540;80;26434;-78
2022/08/29 00:22:48;;;;;;;15.18;13.32;;;;;;;18.51;78.72;97151.09;1763743;79;25890;-77
2022/08/29 00:25:15;;;;;;;17.27;12.98;;;;;;;18.49;78.79;97154.63;1763463;81;27426;-79
2022/08/29 00:27:42;;;;;;;17.75;13.78;;;;;;;18.47;78.84;97158.20;1763461;81;25410;-78
2022/08/29 00:30:11;;;;;;;17.75;13.18;;;;;;;18.48;78.89;97163.38;1763485;80;25683;-79
2022/08/29 00:32:38;;;;;;;15.35;13.68;;;;;;;18.48;78.91;97157.91;1763465;79;25871;-78
2022/08/29 00:35:09;;;;;;;17.30;13.70;;;;;;;18.47;78.97;97159.58;1763724;80;25686;-77
2022/08/29 00:37:36;;;;;;;16.50;13.48;;;;;;;18.48;79.07;97162.55;1717478;83;27376;-78
2022/08/29 00:40:06;;;;;;;16.35;13.00;;;;;;;18.45;79.13;97158.47;1717477;83;25918;-78
2022/08/29 00:42:34;;;;;;;18.40;14.10;;;;;;;18.44;79.32;97154.63;1717541;82;25843;-79
2022/08/29 00:45:04;;;;;;;15.90;13.93;;;;;;;18.43;79.31;97150.25;1717520;83;26586;-79
2022/08/29 00:47:35;;;;;;;20.35;14.75;;;;;;;18.40;79.32;97151.61;1717638;83;25858;-79
2022/08/29 00:50:07;;;;;;;18.30;13.72;;;;;;;18.42;79.38;97151.34;1697227;83;27456;-78
2022/08/29 00:52:45;;;;;;;19.25;13.50;;;;;;;18.43;79.36;97154.36;1717612;83;26513;-80
2022/08/29 00:55:18;;;;;;;18.27;14.13;;;;;;;18.43;79.39;97151.63;1708709;83;25716;-79
2022/08/29 00:57:50;;;;;;;15.63;13.08;;;;;;;18.43;79.44;97148.89;1668130;84;25460;-79
2022/08/29 01:00:17;;;;;;;15.63;13.55;;;;;;;18.39;79.52;97149.14;1673055;84;26007;-80
2022/08/29 01:02:44;;;;;;;16.75;14.10;;;;;;;18.40;79.67;97156.25;1693332;84;28406;-80
2022/08/29 01:05:15;;;;;;;16.97;15.05;;;;;;;18.36;79.71;97152.67;1675910;84;25890;-79
2022/08/29 01:07:42;;;;;;;17.27;14.68;;;;;;;18.39;79.72;97155.97;1695519;84;25819;-81
2022/08/29 01:12:14;;;;;;;20.15;15.55;;;;;;;18.39;79.90;97157.33;1696055;83;26578;-79
2022/08/29 01:12:38;;;;;;;24.98;15.25;;;;;;;18.39;79.98;97158.70;1661350;86;25908;-81
2022/08/29 01:15:09;;;;;;;19.98;14.45;;;;;;;18.39;80.13;97153.23;1688071;83;27370;-80
2022/08/29 01:17:43;;;;;;;14.50;13.00;;;;;;;18.40;80.18;97154.88;1695960;84;25826;-78
2022/08/29 01:20:40;;;;;;;16.67;11.08;;;;;;;18.42;80.20;97156.27;1650393;85;26603;-78
2022/08/29 01:23:18;;;;;;;15.65;12.90;;;;;;;18.45;80.26;97154.91;1646237;85;26358;-79
2022/08/29 01:25:48;;;;;;;14.45;12.80;;;;;;;18.48;80.26;97157.91;1621223;87;25799;-79
2022/08/29 01:28:28;;;;;;;13.55;12.05;;;;;;;18.49;80.30;97157.37;1647596;85;27461;-79
2022/08/29 01:31:12;;;;;;;21.85;13.00;;;;;;;18.50;80.37;97162.57;1591172;90;25961;-81
2022/08/29 01:33:53;;;;;;;13.53;11.70;;;;;;;18.48;80.41;97161.19;1570793;89;25841;-79
2022/08/29 01:36:26;;;;;;;13.32;10.28;;;;;;;18.50;80.47;97159.02;1537687;91;25773;-78
2022/08/29 01:38:53;;;;;;;11.53;10.13;;;;;;;18.52;80.51;97158.20;1528995;92;26164;-79
2022/08/29 01:41:21;;;;;;;15.65;10.65;;;;;;;18.53;80.57;97159.31;1513852;92;28130;-78
2022/08/29 01:43:52;;;;;;;13.98;10.20;;;;;;;18.58;80.59;97161.28;1529928;93;25542;-78
2022/08/29 01:46:24;;;;;;;11.93;10.68;;;;;;;18.56;80.67;97161.52;1529859;92;25887;-78
2022/08/29 01:48:51;;;;;;;10.82;9.10;;;;;;;18.56;80.76;97169.72;1527884;92;26597;-78
2022/08/29 01:51:18;;;;;;;10.15;8.78;;;;;;;18.55;80.80;97164.52;1529692;92;25980;-79
2022/08/29 01:53:45;;;;;;;9.28;8.40;;;;;;;18.55;80.86;97171.34;1525318;92;27470;-80
2022/08/29 01:56:19;;;;;;;10.23;8.60;;;;;;;18.56;80.92;97169.72;1493456;96;25452;-81
2022/08/29 01:58:48;;;;;;;8.90;7.72;;;;;;;18.55;80.93;97168.06;1493668;96;25836;-79
2022/08/29 02:01:19;;;;;;;8.15;7.30;;;;;;;18.55;80.99;97168.06;1493765;96;25862;-78
2022/08/29 02:03:46;;;;;;;7.87;7.05;;;;;;;18.57;80.99;97171.91;1485486;96;25837;-79
2022/08/29 02:06:13;;;;;;;8.35;7.08;;;;;;;18.57;80.97;97174.64;1487426;96;27522;-78
2022/08/29 02:08:42;;;;;;;7.97;7.17;;;;;;;18.57;81.00;97176.83;1496201;94;25881;-78
2022/08/29 02:11:11;;;;;;;8.50;7.15;;;;;;;18.57;81.06;97176.00;1497696;94;25934;-79
2022/08/29 02:13:41;;;;;;;10.70;7.95;;;;;;;18.58;81.08;97181.23;1497668;94;25914;-79
2022/08/29 02:16:09;;;;;;;8.80;7.40;;;;;;;18.59;81.03;97179.33;1507279;94;26504;-79
2022/08/29 02:18:36;;;;;;;8.83;7.85;;;;;;;18.61;81.02;97178.48;1541756;91;28130;-79
2022/08/29 02:21:03;;;;;;;8.50;7.67;;;;;;;18.60;81.17;97179.58;1544355;91;25799;-81
2022/08/29 02:23:33;;;;;;;8.38;7.58;;;;;;;18.58;81.31;97175.77;1542552;91;25864;-79
2022/08/29 02:25:59;;;;;;;9.55;7.60;;;;;;;18.55;81.31;97172.71;1544362;91;25886;-83
2022/08/29 02:28:26;;;;;;;8.68;7.62;;;;;;;18.54;81.34;97172.44;1544277;91;25734;-79
2022/08/29 02:30:53;;;;;;;10.40;7.78;;;;;;;18.54;81.40;97175.98;1606375;85;28147;-79
2022/08/29 02:33:20;;;;;;;10.28;7.75;;;;;;;18.56;81.46;97174.36;1705974;81;26265;-79
2022/08/29 02:35:48;;;;;;;8.53;7.58;;;;;;;18.54;81.45;97180.63;1701758;82;25686;-79
2022/08/29 02:38:16;;;;;;;10.43;8.15;;;;;;;18.55;81.49;97180.91;1727899;83;26555;-77
2022/08/29 02:40:43;;;;;;;9.45;7.83;;;;;;;18.56;81.54;97184.75;1701888;82;25661;-82
2022/08/29 02:43:11;;;;;;;10.28;7.33;;;;;;;18.56;81.65;97182.56;1727705;83;28082;-80
2022/08/29 02:45:41;;;;;;;7.62;6.95;;;;;;;18.54;81.68;97180.63;1698302;83;25649;-81
2022/08/29 02:48:08;;;;;;;8.88;6.62;;;;;;;18.57;81.69;97177.38;1727765;81;25736;-79
2022/08/29 02:50:34;;;;;;;10.25;6.47;;;;;;;18.58;81.64;97173.04;1701656;84;25637;-78
2022/08/29 02:53:01;;;;;;;7.28;6.10;;;;;;;18.61;81.58;97175.75;1727721;81;25656;-78
2022/08/29 02:55:28;;;;;;;6.58;5.87;;;;;;;18.63;81.55;97176.31;1729085;82;28208;-79
2022/08/29 02:57:54;;;;;;;6.83;6.12;;;;;;;18.65;81.52;97180.98;1744145;82;25892;-79
2022/08/29 03:00:25;;;;;;;6.28;5.67;;;;;;;18.63;81.59;97174.41;1752398;81;25715;-81
2022/08/29 03:02:53;;;;;;;6.80;6.10;;;;;;;18.66;81.52;97177.16;1752066;81;25829;-78
2022/08/29 03:05:23;;;;;;;7.58;6.47;;;;;;;18.63;81.53;97174.95;1732292;81;25682;-78
2022/08/29 03:07:51;;;;;;;8.93;7.80;;;;;;;18.66;81.56;97174.42;1752608;81;27433;-79
2022/08/29 03:10:18;;;;;;;12.45;10.85;;;;;;;18.66;81.53;97185.36;1752033;81;25690;-78
2022/08/29 03:12:46;;;;;;;19.65;13.00;;;;;;;18.65;81.48;97181.80;1752360;81;25322;-81
2022/08/29 03:15:14;;;;;;;19.12;13.58;;;;;;;18.65;81.45;97183.71;1731322;81;26426;-78
2022/08/29 03:17:40;;;;;;;18.27;15.50;;;;;;;18.63;81.40;97185.88;1752570;81;25768;-80
2022/08/29 03:20:10;;;;;;;21.02;16.00;;;;;;;18.60;81.35;97184.50;1752393;81;28220;-79
2022/08/29 03:22:36;;;;;;;21.20;16.87;;;;;;;18.59;81.42;97181.52;1752260;81;25683;-78
2022/08/29 03:25:05;;;;;;;21.45;17.32;;;;;;;18.56;81.36;97188.85;1752428;81;25740;-79
2022/08/29 03:27:33;;;;;;;21.68;17.48;;;;;;;18.52;81.39;97186.91;1752152;81;25781;-79
2022/08/29 03:30:00;;;;;;;22.50;18.32;;;;;;;18.50;81.38;97184.44;1752444;81;25768;-80
2022/08/29 03:32:28;;;;;;;27.65;19.52;;;;;;;18.49;81.43;97192.90;1748828;81;27462;-79
2022/08/29 03:34:55;;;;;;;24.10;19.62;;;;;;;18.48;81.49;97191.25;1759736;81;25921;-78
2022/08/29 03:37:21;;;;;;;26.10;19.17;;;;;;;18.47;81.48;97198.66;1735017;81;25807;-78
2022/08/29 03:39:48;;;;;;;24.52;19.55;;;;;;;18.46;81.55;97201.11;1760831;80;26469;-79
2022/08/29 03:42:14;;;;;;;25.10;20.68;;;;;;;18.48;81.56;97204.92;1760560;81;25892;-80
2022/08/29 03:44:41;;;;;;;29.05;20.27;;;;;;;18.47;81.54;97212.33;1760851;81;27421;-80
2022/08/29 03:47:08;;;;;;;27.17;20.43;;;;;;;18.43;81.56;97213.94;1760733;81;25188;-79
2022/08/29 03:49:35;;;;;;;26.07;21.52;;;;;;;18.39;81.60;97214.72;1760505;81;25739;-78
2022/08/29 03:52:03;;;;;;;31.25;22.17;;;;;;;18.35;81.65;97211.14;1760638;81;26781;-79
2022/08/29 03:54:29;;;;;;;26.90;22.32;;;;;;;18.38;81.66;97214.44;1761010;80;25650;-79
2022/08/29 03:56:56;;;;;;;31.33;22.50;;;;;;;18.34;81.72;97213.63;1763194;79;28339;-79
2022/08/29 03:59:24;;;;;;;30.32;23.27;;;;;;;18.29;81.91;97216.86;1763321;80;25655;-79
2022/08/29 04:01:50;;;;;;;28.42;23.55;;;;;;;18.24;81.91;97214.91;1726905;83;25764;-79
2022/08/29 04:07:05;;;;;;;30.27;22.15;;;;;;;18.18;82.05;97222.81;1689903;83;25637;-78
2022/08/29 04:09:32;;;;;;;25.15;22.20;;;;;;;18.19;82.08;97219.00;1708218;83;27440;-80
2022/08/29 04:11:59;;;;;;;32.60;22.02;;;;;;;18.23;82.09;97218.73;1708276;83;25683;-78
2022/08/29 04:14:26;;;;;;;25.60;21.07;;;;;;;18.23;82.03;97216.56;1708357;83;25258;-81
2022/08/29 04:16:52;;;;;;;32.25;22.32;;;;;;;18.22;81.97;97220.39;1708585;83;26547;-80
2022/08/29 04:19:20;;;;;;;28.73;21.77;;;;;;;18.20;82.09;97233.48;1708552;83;25771;-81
2022/08/29 04:21:47;;;;;;;28.52;19.90;;;;;;;18.18;82.11;97230.19;1708490;83;27448;-79
2022/08/29 04:24:16;;;;;;;26.77;21.40;;;;;;;18.12;82.21;97239.42;1708499;83;25875;-78
2022/08/29 04:26:42;;;;;;;26.05;21.00;;;;;;;18.09;82.24;97240.80;1708521;83;25791;-80
2022/08/29 04:29:12;;;;;;;25.02;19.60;;;;;;;18.12;82.31;97244.88;1708770;83;25765;-81
2022/08/29 04:31:42;;;;;;;23.20;19.05;;;;;;;18.12;82.31;97248.44;1708576;83;25717;-81
2022/08/29 04:34:11;;;;;;;22.77;18.42;;;;;;;18.11;82.29;97246.82;1708610;83;27384;-77
2022/08/29 04:36:41;;;;;;;24.90;19.10;;;;;;;18.08;82.31;97252.80;1708414;83;25692;-76
2022/08/29 04:39:08;;;;;;;25.85;19.17;;;;;;;18.11;82.35;97261.02;1708620;83;25870;-75
2022/08/29 04:41:36;;;;;;;22.25;17.50;;;;;;;18.14;82.30;97262.66;1708541;83;26532;-77
2022/08/29 04:44:04;;;;;;;24.23;16.95;;;;;;;18.18;82.22;97269.80;1708525;83;25682;-76
2022/08/29 04:46:31;;;;;;;20.82;16.77;;;;;;;18.18;82.17;97269.25;1708559;83;28539;-78
2022/08/29 04:48:58;;;;;;;18.10;15.98;;;;;;;18.19;82.19;97268.17;1688422;83;25949;-77
2022/08/29 04:51:24;;;;;;;23.05;17.32;;;;;;;18.17;82.15;97273.61;1708529;83;25908;-77
2022/08/29 04:53:52;;;;;;;22.13;15.70;;;;;;;18.18;82.17;97269.25;1708666;83;25718;-75
2022/08/29 04:56:20;;;;;;;21.73;15.85;;;;;;;18.13;82.11;97271.94;1724844;82;25651;-76
2022/08/29 04:58:49;;;;;;;22.37;15.20;;;;;;;18.11;82.18;97270.58;1731519;82;27545;-79
2022/08/29 05:01:19;;;;;;;22.17;14.83;;;;;;;18.13;82.23;97276.58;1762151;81;25726;-77
2022/08/29 05:03:47;;;;;;;18.00;14.30;;;;;;;18.16;82.21;97274.69;1736671;81;25682;-76
2022/08/29 05:06:17;;;;;;;19.73;14.63;;;;;;;18.14;82.18;97277.69;1732934;81;26321;-76
2022/08/29 05:08:44;;;;;;;17.07;14.00;;;;;;;18.13;82.11;97280.13;1733100;81;25825;-77
2022/08/29 05:11:18;;;;;;;18.82;14.87;;;;;;;18.14;82.16;97285.88;1694544;83;28318;-77
2022/08/29 05:13:46;;;;;;;17.02;14.35;;;;;;;18.15;82.07;97288.89;1707514;83;25461;-76
2022/08/29 05:16:15;;;;;;;20.43;16.02;;;;;;;18.12;82.13;97291.32;1748733;81;25749;-79
2022/08/29 05:18:45;;;;;;;21.80;16.07;;;;;;;18.12;82.16;97293.51;1732946;81;26628;-79
2022/08/29 05:21:30;;;;;;;19.92;15.85;;;;;;;18.07;82.11;97296.77;1694233;82;25256;-76
2022/08/29 05:23:58;;;;;;;22.17;16.35;;;;;;;18.05;82.27;97294.83;1737278;81;27359;-79
2022/08/29 05:26:31;;;;;;;18.37;15.10;;;;;;;18.07;82.28;97303.05;1733172;81;25836;-78
2022/08/29 05:28:58;;;;;;;22.77;16.35;;;;;;;18.08;82.26;97303.33;1696404;83;25809;-79
2022/08/29 05:31:25;;;;;;;19.57;17.10;;;;;;;18.05;82.23;97302.48;1689406;82;25765;-76
2022/08/29 05:33:51;;;;;;;19.07;16.77;;;;;;;18.03;82.12;97299.18;1661323;84;25944;-80
2022/08/29 05:36:19;;;;;;;18.52;16.60;;;;;;;17.99;82.21;97307.64;1657434;84;27384;-77
2022/08/29 05:38:45;;;;;;;19.45;16.50;;;;;;;17.98;82.25;97302.72;1648374;84;25824;-79
2022/08/29 05:41:12;;;;;;;20.57;17.02;;;;;;;17.99;82.28;97302.17;1685159;84;25842;-77
2022/08/29 05:43:38;;;;;;;20.48;17.27;;;;;;;17.99;82.35;97299.45;1679855;84;26511;-79
2022/08/29 05:46:08;;;;;;;20.70;16.67;;;;;;;17.98;82.35;97297.80;1683290;84;25691;-77
2022/08/29 05:48:39;;;;;;;20.37;17.25;;;;;;;18.02;82.34;97297.53;1680595;84;27601;-77
2022/08/29 05:51:06;;;;;;;18.77;15.70;;;;;;;18.05;82.25;97305.21;1675663;84;25793;-76
2022/08/29 05:53:33;;;;;;;20.48;17.35;;;;;;;18.03;82.18;97303.82;1676422;84;25881;-76
2022/08/29 05:56:00;;;;;;;20.68;16.82;;;;;;;18.00;82.15;97305.16;1657569;84;25908;-78
2022/08/29 05:58:27;;;;;;;21.80;17.25;;;;;;;17.94;82.16;97304.31;1637287;86;26503;-76
2022/08/29 06:00:53;;;;;;;24.52;15.98;;;;;;;17.98;82.29;97315.55;1632334;86;28272;-76
2022/08/29 06:03:20;;;;;;;19.48;17.12;;;;;;;17.99;82.29;97315.83;1632935;86;25822;-77
2022/08/29 06:05:51;;;;;;;20.95;16.85;;;;;;;17.96;82.25;97314.98;1632475;86;25906;-76
2022/08/29 06:08:20;;;;;;;20.75;16.75;;;;;;;17.91;82.26;97320.38;1630276;86;25939;-76
2022/08/29 06:10:47;;;;;;;22.45;17.35;;;;;;;17.93;82.33;97320.95;1632642;86;25362;-79
2022/08/29 06:13:14;;;;;;;22.25;17.42;;;;;;;17.96;82.38;97325.91;1632774;86;28100;-77
2022/08/29 06:15:44;;;;;;;22.77;17.85;;;;;;;17.99;82.28;97322.66;1632727;86;25300;-76
2022/08/29 06:18:12;;;;;;;21.40;17.00;;;;;;;17.98;82.31;97318.28;1632833;86;25436;-77
2022/08/29 06:20:39;;;;;;;21.37;18.02;;;;;;;17.93;82.41;97326.41;1632958;86;26630;-79
2022/08/29 06:23:06;;;;;;;26.57;18.37;;;;;;;17.91;82.53;97323.11;1632840;86;25919;-77
2022/08/29 06:25:33;;;;;;;21.42;16.85;;;;;;;17.90;82.52;97333.75;1660805;83;27382;-77
2022/08/29 06:28:01;;;;;;;19.70;16.65;;;;;;;17.91;82.50;97332.67;1714206;81;26216;-76
2022/08/29 06:30:31;;;;;;;22.50;16.80;;;;;;;17.94;82.47;97335.72;1726969;81;25742;-77
2022/08/29 06:32:59;;;;;;;20.08;16.35;;;;;;;17.96;82.43;97343.11;1727007;82;26475;-76
2022/08/29 06:35:25;;;;;;;22.40;17.17;;;;;;;17.98;82.36;97338.76;1727072;81;25795;-79
2022/08/29 06:37:52;;;;;;;21.40;16.93;;;;;;;18.00;82.37;97347.49;1727078;83;27423;-76
2022/08/29 06:40:18;;;;;;;21.95;16.52;;;;;;;18.01;82.34;97346.41;1726913;81;25692;-76
2022/08/29 06:42:45;;;;;;;18.57;15.85;;;;;;;18.02;82.32;97354.89;1727015;81;25745;-76
2022/08/29 06:45:12;;;;;;;21.23;14.90;;;;;;;18.02;82.24;97354.06;1726995;81;25671;-76
2022/08/29 06:47:38;;;;;;;21.73;16.00;;;;;;;18.00;82.18;97362.52;1727062;81;25731;-76
2022/08/29 06:50:06;;;;;;;20.62;15.80;;;;;;;17.97;82.14;97364.42;1727013;82;27440;-75
2022/08/29 06:52:33;;;;;;;22.95;16.35;;;;;;;17.95;82.14;97362.48;1726951;81;25708;-78
2022/08/29 06:54:59;;;;;;;20.68;16.42;;;;;;;17.96;82.15;97369.59;1726805;81;25271;-76
2022/08/29 06:57:26;;;;;;;24.77;18.00;;;;;;;17.94;82.22;97365.75;1742780;80;25826;-78
2022/08/29 06:59:53;;;;;;;21.50;17.07;;;;;;;17.94;82.20;97373.13;1744391;80;25674;-76
2022/08/29 07:02:19;;;;;;;21.27;16.50;;;;;;;17.95;82.26;97372.05;1744336;82;27373;-78
2022/08/29 07:04:46;;;;;;;24.90;17.80;;;;;;;17.94;82.21;97379.95;1723217;82;25731;-78
2022/08/29 07:07:12;;;;;;;21.25;16.37;;;;;;;17.94;82.15;97381.31;1738738;80;26125;-76
2022/08/29 07:09:39;;;;;;;20.17;16.27;;;;;;;17.89;82.22;97383.45;1754461;81;25788;-76
2022/08/29 07:12:06;;;;;;;21.20;17.45;;;;;;;17.83;82.20;97380.94;1754923;81;25453;-77
2022/08/29 07:14:33;;;;;;;22.35;17.98;;;;;;;17.80;82.28;97386.91;1754949;81;27418;-76
2022/08/29 07:16:59;;;;;;;25.62;18.90;;;;;;;17.78;82.23;97386.33;1744749;81;25629;-77
2022/08/29 07:19:26;;;;;;;24.23;19.00;;;;;;;17.72;82.39;97390.11;1724801;81;25829;-81
2022/08/29 07:21:53;;;;;;;22.00;18.17;;;;;;;17.67;82.44;97392.77;1724730;81;26912;-79
2022/08/29 07:24:19;;;;;;;26.82;19.57;;;;;;;17.63;82.56;97392.45;1724716;81;25466;-81
2022/08/29 07:26:46;;;;;;;21.65;19.23;;;;;;;17.64;82.61;97388.10;1724544;81;28267;-79
2022/08/29 07:29:18;;;;;;;26.52;19.67;;;;;;;17.67;82.55;97395.50;1728801;81;25849;-77
2022/08/29 07:31:46;;;;;;;25.17;19.90;;;;;;;17.68;82.46;97393.06;1720269;81;25755;-80
2022/08/29 07:34:12;;;;;;;27.42;21.12;;;;;;;17.66;82.43;97401.50;1726113;81;26565;-78
2022/08/29 07:36:39;;;;;;;27.58;20.60;;;;;;;17.66;82.47;97406.95;1724848;81;25776;-78
2022/08/29 07:39:11;;;;;;;26.05;21.17;;;;;;;17.63;82.51;97404.19;1724846;80;28163;-78
2022/08/29 07:41:39;;;;;;;27.52;20.55;;;;;;;17.64;82.51;97407.21;1606999;86;25908;-78
2022/08/29 07:44:06;;;;;;;32.25;22.27;;;;;;;17.62;82.42;97410.73;1579760;89;25901;-77
2022/08/29 07:46:33;;;;;;;32.78;21.93;;;;;;;17.63;82.38;97418.38;1585540;89;26541;-79
2022/08/29 07:49:00;;;;;;;29.37;21.50;;;;;;;17.63;82.39;97412.38;1633252;86;25858;-78
2022/08/29 07:51:27;;;;;;;27.20;19.52;;;;;;;17.64;82.38;97424.13;1611564;85;27461;-78
2022/08/29 07:53:56;;;;;;;26.57;20.08;;;;;;;17.64;82.34;97416.77;1611825;87;25593;-81
2022/08/29 07:56:28;;;;;;;30.70;20.85;;;;;;;17.63;82.33;97421.94;1611520;87;26034;-79
2022/08/29 07:58:56;;;;;;;24.87;19.70;;;;;;;17.63;82.24;97420.58;1611411;87;26561;-79
2022/08/29 08:01:23;;;;;;;28.70;21.48;;;;;;;17.58;82.23;97425.96;1611666;87;25779;-78
2022/08/29 08:03:51;;;;;;;27.67;21.62;;;;;;;17.58;82.23;97432.78;1611647;85;27739;-82
2022/08/29 08:06:21;;;;;;;31.35;22.60;;;;;;;17.59;82.26;97432.25;1627653;85;25855;-81
2022/08/29 08:08:48;;;;;;;29.23;22.20;;;;;;;17.61;82.30;97439.64;1638153;86;25881;-78
2022/08/29 08:11:15;;;;;;;30.32;23.55;;;;;;;17.63;82.24;97443.77;1637973;85;25791;-79
2022/08/29 08:13:41;;;;;;;32.67;23.57;;;;;;;17.63;82.24;97447.87;1638135;85;25851;-77
2022/08/29 08:16:12;;;;;;;30.95;24.23;;;;;;;17.59;82.32;97446.72;1638003;86;27367;-78
2022/08/29 08:18:40;;;;;;;31.87;25.25;;;;;;;17.56;82.38;97446.39;1637909;85;25905;-78
2022/08/29 08:21:07;;;;;;;32.75;24.50;;;;;;;17.57;82.56;97450.23;1630953;86;26130;-79
2022/08/29 08:23:35;;;;;;;30.50;24.20;;;;;;;17.61;82.59;97451.92;1634060;86;26558;-78
2022/08/29 08:26:02;;;;;;;30.08;23.22;;;;;;;17.64;82.58;97454.16;1637138;86;25802;-79
2022/08/29 08:28:29;;;;;;;29.32;22.60;;;;;;;17.68;82.44;97453.11;1637336;86;27716;-83
2022/08/29 08:31:00;;;;;;;28.23;23.57;;;;;;;17.71;82.28;97457.53;1612761;85;25904;-78
2022/08/29 08:33:27;;;;;;;28.35;22.10;;;;;;;17.71;82.20;97452.61;1611490;85;26488;-78
2022/08/29 08:35:53;;;;;;;32.10;23.32;;;;;;;17.72;82.20;97463.81;1611783;87;25797;-78
2022/08/29 08:38:21;;;;;;;29.02;24.15;;;;;;;17.67;82.19;97467.30;1672409;80;25829;-78
2022/08/29 08:41:17;;;;;;;31.52;24.92;;;;;;;17.67;82.36;97464.57;1724685;81;27386;-78
2022/08/29 08:43:52;;;;;;;28.95;23.25;;;;;;;17.69;82.45;97467.05;1730289;80;25949;-78
2022/08/29 08:46:27;;;;;;;32.17;24.23;;;;;;;17.74;82.37;97463.03;1722741;80;25248;-80
2022/08/29 08:48:56;;;;;;;30.32;23.38;;;;;;;17.79;82.43;97463.06;1652297;84;26466;-80
2022/08/29 08:51:28;;;;;;;30.05;22.52;;;;;;;17.84;82.34;97467.23;1656683;84;25854;-78
2022/08/29 08:53:58;;;;;;;28.92;24.18;;;;;;;17.86;82.23;97475.45;1630442;85;27343;-81
2022/08/29 08:56:39;;;;;;;28.95;22.95;;;;;;;17.91;82.28;97476.03;1626660;85;25821;-79
2022/08/29 08:59:28;;;;;;;25.35;22.62;;;;;;;17.97;82.38;97466.83;1568668;88;25892;-81
2022/08/29 09:02:29;;;;;;;30.45;24.10;;;;;;;18.07;82.33;97469.66;1575672;89;25969;-79
2022/08/29 09:05:07;;;;;;;29.12;22.05;;;;;;;18.23;82.34;97468.72;1582893;88;25785;-78
2022/08/29 09:08:08;;;;;;;25.62;20.32;;;;;;;18.44;82.55;97467.56;1586774;88;27413;-77
2022/08/29 09:11:15;;;;;;;33.33;21.57;;;;;;;18.60;81.96;97459.78;1586258;90;25822;-79
2022/08/29 09:14:24;;;;;;;24.18;20.10;;;;;;;18.80;81.49;97457.22;1583714;88;25806;-80
2022/08/29 09:16:55;;;;;;;28.30;20.90;;;;;;;18.97;81.03;97455.67;1586793;88;25808;-78
2022/08/29 09:19:22;;;;;;;23.25;18.40;;;;;;;19.39;81.17;97460.59;1586699;88;26137;-81
2022/08/29 09:21:54;;;;;;;22.73;17.95;;;;;;;19.76;80.71;97457.77;1586814;88;28343;-81
2022/08/29 09:24:52;;;;;;;23.67;17.05;;;;;;;20.07;80.56;97459.20;1586599;89;25886;-79
2022/08/29 09:27:22;;;;;;;18.77;16.97;;;;;;;20.25;79.43;97457.88;1589438;87;26845;-79
2022/08/29 09:30:10;;;;;;;18.80;16.80;;;;;;;20.32;78.48;97454.31;1586456;88;25802;-77
2022/08/29 09:33:07;;;;;;;19.10;17.23;;;;;;;20.34;77.97;97458.98;1586542;88;26523;-77
2022/08/29 09:35:44;;;;;;;25.35;17.98;;;;;;;20.30;77.19;97464.17;1582820;88;27408;-76
2022/08/29 09:38:22;;;;;;;24.02;17.60;;;;;;;20.28;77.12;97467.77;1586100;89;25568;-77
2022/08/29 09:41:00;;;;;;;20.50;18.02;;;;;;;20.30;77.17;97465.55;1584407;88;25913;-78
2022/08/29 09:43:45;;;;;;;19.48;17.30;;;;;;;20.38;77.30;97470.55;1596680;88;25733;-78
2022/08/29 09:46:25;;;;;;;19.67;17.62;;;;;;;20.58;76.90;97470.27;1611768;86;25810;-76
2022/08/29 09:49:00;;;;;;;18.77;15.95;;;;;;;20.75;76.73;97464.80;1663784;82;27490;-79
2022/08/29 09:51:35;;;;;;;19.32;15.93;;;;;;;20.90;76.01;97464.48;1740642;82;25746;-77
2022/08/29 09:54:28;;;;;;;18.57;16.48;;;;;;;21.01;75.58;97473.02;1678240;85;25402;-79
2022/08/29 09:57:06;;;;;;;19.50;16.85;;;;;;;21.04;75.05;97470.52;1703141;84;25802;-81
2022/08/29 09:59:41;;;;;;;17.87;15.55;;;;;;;20.92;74.42;97474.64;1735290;82;25772;-78
2022/08/29 10:02:28;;;;;;;18.65;16.45;;;;;;;20.92;74.38;97467.23;1741556;82;28204;-77
2022/08/29 10:05:08;;;;;;;20.27;15.93;;;;;;;20.92;74.38;97467.23;1741340;82;25835;-78
2022/08/29 10:07:50;;;;;;;20.60;15.40;;;;;;;20.95;74.25;97469.98;1741617;82;26667;-78
2022/08/29 10:10:21;;;;;;;17.40;15.60;;;;;;;20.93;73.74;97477.12;1740771;82;25875;-79
2022/08/29 10:13:04;;;;;;;16.90;14.90;;;;;;;20.90;74.04;97463.12;1741294;82;26065;-80
2022/08/29 10:15:51;;;;;;;22.10;15.18;;;;;;;20.79;73.69;97444.48;1739638;82;27396;-77
2022/08/29 10:18:46;;;;;;;16.65;14.87;;;;;;;20.88;73.68;97464.80;1740848;82;25917;-79
2022/08/29 10:21:45;;;;;;;16.65;14.40;;;;;;;20.73;73.45;97436.81;1741648;82;25817;-77
2022/08/29 10:24:48;;;;;;;15.05;13.48;;;;;;;20.92;72.99;97451.33;1741157;82;25846;-77
2022/08/29 10:27:50;;;;;;;17.23;13.62;;;;;;;21.04;72.26;97425.78;1741588;82;25280;-80
2022/08/29 10:30:22;;;;;;;20.02;12.85;;;;;;;21.04;72.26;97425.78;1741477;82;27443;-78
2022/08/29 10:33:16;;;;;;;15.32;12.35;;;;;;;21.10;72.32;97450.77;1741828;82;25782;-79
2022/08/29 10:35:54;;;;;;;12.90;11.70;;;;;;;21.12;72.56;97446.64;1741716;82;25831;-77
2022/08/29 10:38:46;;;;;;;13.83;12.25;;;;;;;21.18;71.88;97451.04;1739152;82;25883;-77
2022/08/29 10:41:38;;;;;;;14.65;11.78;;;;;;;21.24;71.80;97449.66;1741718;82;26111;-79
2022/08/29 10:44:32;;;;;;;12.65;11.18;;;;;;;21.26;71.20;97450.19;1741578;82;27458;-77
2022/08/29 10:47:04;;;;;;;14.23;11.53;;;;;;;21.30;71.04;97447.16;1741497;82;25470;-77
2022/08/29 10:49:51;;;;;;;13.08;11.48;;;;;;;21.32;70.79;97450.46;1735424;82;25800;-78
2022/08/29 10:52:43;;;;;;;12.75;11.48;;;;;;;21.38;70.68;97452.07;1704431;83;25821;-77
2022/08/29 10:55:46;;;;;;;12.50;11.33;;;;;;;21.48;70.84;97447.95;1700919;82;32537;-79
2022/08/29 10:58:30;;;;;;;11.78;10.50;;;;;;;21.63;70.39;97445.11;1683234;84;26905;-78
2022/08/29 11:01:14;;;;;;;12.23;10.65;;;;;;;21.77;70.27;97447.53;1695154;84;26024;-79
2022/08/29 11:04:16;;;;;;;13.28;10.72;;;;;;;21.89;69.67;97427.41;1613386;87;25897;-76
2022/08/29 11:06:52;;;;;;;10.90;9.73;;;;;;;21.89;69.67;97427.41;1576754;89;26487;-77
2022/08/29 11:09:30;;;;;;;11.43;10.23;;;;;;;22.06;69.14;97448.25;1579588;89;25895;-77
2022/08/29 11:16:56;;;;;;;11.18;9.93;;;;;;;22.02;68.48;97447.16;1560264;90;25891;-77
2022/08/29 11:20:45;;;;;;;11.33;10.20;;;;;;;21.95;68.63;97437.02;1452717;96;26010;-78
2022/08/29 11:31:15;;;;;;;10.48;9.48;;;;;;;21.84;67.14;97416.47;1474835;96;26335;-78
2022/08/29 11:33:50;;;;;;;11.75;9.83;;;;;;;21.96;66.87;97427.66;1472243;97;25946;-79
2022/08/29 11:36:56;;;;;;;11.70;9.00;;;;;;;22.11;67.92;97417.96;1409755;100;25880;-79
2022/08/29 11:40:00;;;;;;;10.35;9.10;;;;;;;22.34;67.49;97418.62;1411846;100;26411;-76
2022/08/29 11:42:34;;;;;;;12.82;8.15;;;;;;;22.56;66.37;97420.95;1411758;100;26120;-76
2022/08/29 11:45:05;;;;;;;10.43;7.62;;;;;;;22.86;65.96;97422.06;1411664;100;27525;-77
2022/08/29 11:47:45;;;;;;;8.75;7.83;;;;;;;23.09;65.32;97416.33;1411722;100;25773;-76
2022/08/29 11:50:23;;;;;;;11.85;8.08;;;;;;;23.22;64.95;97418.39;1411787;100;26133;-77
2022/08/29 11:53:18;;;;;;;11.00;7.72;;;;;;;23.35;64.28;97417.70;1409157;100;25968;-76
2022/08/29 11:56:10;;;;;;;10.18;7.45;;;;;;;23.51;64.81;97422.50;1411666;100;26990;-77
2022/08/29 11:58:44;;;;;;;9.83;7.03;;;;;;;23.73;63.59;97423.33;1484434;94;27500;-76